sensor_id;sensor_type;location;lat;lon;timestamp;pressure;altitude;pressure_sealevel;temperature;humidity
79577;BME280;69045;48.136;11.386;2023-09-30T00:02:20;96086.06;;;21.01;56.36
79577;BME280;69045;48.136;11.386;2023-09-30T00:04:48;96082.59;;;21.01;56.32
79577;BME280;69045;48.136;11.386;2023-09-30T00:07:16;96082.31;;;20.97;56.50
79577;BME280;69045;48.136;11.386;2023-09-30T00:09:46;96102.53;;;20.93;56.72
79577;BME280;69045;48.136;11.386;2023-09-30T00:12:14;96103.59;;;20.92;56.59
79577;BME280;69045;48.136;11.386;2023-09-30T00:14:42;96116.13;;;20.91;56.57
79577;BME280;69045;48.136;11.386;2023-09-30T00:17:10;96106.53;;;20.90;56.83
79577;BME280;69045;48.136;11.386;2023-09-30T00:19:40;96108.41;;;20.90;56.58
79577;BME280;69045;48.136;11.386;2023-09-30T00:22:08;96110.28;;;20.89;57.12
79577;BME280;69045;48.136;11.386;2023-09-30T00:24:36;96112.63;;;20.86;57.08
79577;BME280;69045;48.136;11.386;2023-09-30T00:27:06;96113.97;;;20.83;57.50
79577;BME280;69045;48.136;11.386;2023-09-30T00:29:34;96114.50;;;20.80;57.35
79577;BME280;69045;48.136;11.386;2023-09-30T00:32:03;96115.28;;;20.76;57.85
79577;BME280;69045;48.136;11.386;2023-09-30T00:34:32;96112.88;;;20.74;57.47
79577;BME280;69045;48.136;11.386;2023-09-30T00:37:01;96117.13;;;20.70;57.76
79577;BME280;69045;48.136;11.386;2023-09-30T00:39:29;96116.59;;;20.68;57.90
79577;BME280;69045;48.136;11.386;2023-09-30T00:41:57;96112.84;;;20.64;58.21
79577;BME280;69045;48.136;11.386;2023-09-30T00:44:28;96110.44;;;20.62;58.38
79577;BME280;69045;48.136;11.386;2023-09-30T00:46:59;96114.13;;;20.56;58.27
79577;BME280;69045;48.136;11.386;2023-09-30T00:49:29;96107.75;;;20.57;58.51
79577;BME280;69045;48.136;11.386;2023-09-30T00:51:57;96096.03;;;20.53;58.76
79577;BME280;69045;48.136;11.386;2023-09-30T00:54:26;96100.00;;;20.51;58.88
79577;BME280;69045;48.136;11.386;2023-09-30T00:56:55;96106.66;;;20.48;58.92
79577;BME280;69045;48.136;11.386;2023-09-30T00:59:25;96115.44;;;20.49;59.15
79577;BME280;69045;48.136;11.386;2023-09-30T01:01:56;96116.78;;;20.51;59.14
79577;BME280;69045;48.136;11.386;2023-09-30T01:04:27;96120.22;;;20.52;59.01
79577;BME280;69045;48.136;11.386;2023-09-30T01:06:55;96128.47;;;20.50;59.44
79577;BME280;69045;48.136;11.386;2023-09-30T01:09:26;96119.72;;;20.55;59.12
79577;BME280;69045;48.136;11.386;2023-09-30T01:11:54;96120.25;;;20.57;59.53
79577;BME280;69045;48.136;11.386;2023-09-30T01:14:27;96124.78;;;20.56;59.10
79577;BME280;69045;48.136;11.386;2023-09-30T01:16:57;96112.28;;;20.57;59.30
79577;BME280;69045;48.136;11.386;2023-09-30T01:19:26;96106.16;;;20.56;59.20
79577;BME280;69045;48.136;11.386;2023-09-30T01:21:56;96099.22;;;20.55;59.26
79577;BME280;69045;48.136;11.386;2023-09-30T01:24:27;96106.16;;;20.56;59.83
79577;BME280;69045;48.136;11.386;2023-09-30T01:26:56;96103.78;;;20.60;59.49
79577;BME280;69045;48.136;11.386;2023-09-30T01:29:25;96103.50;;;20.56;59.42
79577;BME280;69045;48.136;11.386;2023-09-30T01:31:53;96110.16;;;20.54;59.58
79577;BME280;69045;48.136;11.386;2023-09-30T01:34:22;96113.59;;;20.54;59.28
79577;BME280;69045;48.136;11.386;2023-09-30T01:36:50;96115.72;;;20.57;59.50
79577;BME280;69045;48.136;11.386;2023-09-30T01:39:19;96121.59;;;20.54;59.63
79577;BME280;69045;48.136;11.386;2023-09-30T01:41:47;96119.19;;;20.53;59.55
79577;BME280;69045;48.136;11.386;2023-09-30T01:44:15;96118.91;;;20.49;59.47
79577;BME280;69045;48.136;11.386;2023-09-30T01:46:43;96126.09;;;20.49;59.92
79577;BME280;69045;48.136;11.386;2023-09-30T01:49:11;96118.59;;;20.45;59.75
79577;BME280;69045;48.136;11.386;2023-09-30T01:51:39;96120.69;;;20.43;59.51
79577;BME280;69045;48.136;11.386;2023-09-30T01:54:07;96121.75;;;20.42;59.89
79577;BME280;69045;48.136;11.386;2023-09-30T01:56:37;96121.50;;;20.39;59.76
79577;BME280;69045;48.136;11.386;2023-09-30T01:59:05;96114.81;;;20.36;59.63
79577;BME280;69045;48.136;11.386;2023-09-30T02:01:33;96123.59;;;20.37;59.63
79577;BME280;69045;48.136;11.386;2023-09-30T02:04:01;96117.72;;;20.35;59.90
79577;BME280;69045;48.136;11.386;2023-09-30T02:06:29;96120.41;;;20.35;59.90
79577;BME280;69045;48.136;11.386;2023-09-30T02:08:57;96122.25;;;20.34;59.87
79577;BME280;69045;48.136;11.386;2023-09-30T02:11:25;96119.84;;;20.33;59.62
79577;BME280;69045;48.136;11.386;2023-09-30T02:13:55;96121.47;;;20.34;60.10
79577;BME280;69045;48.136;11.386;2023-09-30T02:16:26;96119.34;;;20.36;60.00
79577;BME280;69045;48.136;11.386;2023-09-30T02:18:55;96127.03;;;20.32;60.19
79577;BME280;69045;48.136;11.386;2023-09-30T02:21:23;96122.25;;;20.34;60.14
79577;BME280;69045;48.136;11.386;2023-09-30T02:23:55;96121.50;;;20.39;59.74
79577;BME280;69045;48.136;11.386;2023-09-30T02:26:23;96124.94;;;20.39;60.18
79577;BME280;69045;48.136;11.386;2023-09-30T02:28:52;96122.81;;;20.41;60.17
79577;BME280;69045;48.136;11.386;2023-09-30T02:31:22;96122.03;;;20.41;60.35
79577;BME280;69045;48.136;11.386;2023-09-30T02:33:53;96120.69;;;20.43;60.05
79577;BME280;69045;48.136;11.386;2023-09-30T02:36:21;96120.69;;;20.43;59.84
79577;BME280;69045;48.136;11.386;2023-09-30T02:38:49;96124.75;;;20.46;59.92
79577;BME280;69045;48.136;11.386;2023-09-30T02:41:17;96123.94;;;20.45;59.86
79577;BME280;69045;48.136;11.386;2023-09-30T02:43:45;96131.91;;;20.45;59.69
79577;BME280;69045;48.136;11.386;2023-09-30T02:46:13;96125.56;;;20.47;59.61
79577;BME280;69045;48.136;11.386;2023-09-30T02:48:43;96123.13;;;20.45;59.49
79577;BME280;69045;48.136;11.386;2023-09-30T02:51:11;96118.84;;;20.44;59.90
79577;BME280;69045;48.136;11.386;2023-09-30T02:53:40;96122.56;;;20.43;60.10
79577;BME280;69045;48.136;11.386;2023-09-30T02:56:08;96121.50;;;20.44;60.00
79577;BME280;69045;48.136;11.386;2023-09-30T02:58:37;96125.00;;;20.44;59.94
79577;BME280;69045;48.136;11.386;2023-09-30T03:01:07;96117.22;;;20.43;59.87
79577;BME280;69045;48.136;11.386;2023-09-30T03:03:37;96122.31;;;20.44;59.97
79577;BME280;69045;48.136;11.386;2023-09-30T03:06:07;96110.84;;;20.44;59.66
79577;BME280;69045;48.136;11.386;2023-09-30T03:08:35;96117.81;;;20.45;59.66
79577;BME280;69045;48.136;11.386;2023-09-30T03:11:03;96113.28;;;20.45;60.01
79577;BME280;69045;48.136;11.386;2023-09-30T03:13:32;96120.69;;;20.43;59.68
79577;BME280;69045;48.136;11.386;2023-09-30T03:16:00;96117.22;;;20.43;59.90
79577;BME280;69045;48.136;11.386;2023-09-30T03:18:29;96125.78;;;20.45;59.56
79577;BME280;69045;48.136;11.386;2023-09-30T03:21:00;96125.22;;;20.43;59.82
79577;BME280;69045;48.136;11.386;2023-09-30T03:23:31;96130.28;;;20.39;59.81
79577;BME280;69045;48.136;11.386;2023-09-30T03:25:59;96134.00;;;20.43;59.88
79577;BME280;69045;48.136;11.386;2023-09-30T03:28:28;96127.09;;;20.42;59.88
79577;BME280;69045;48.136;11.386;2023-09-30T03:30:55;96124.69;;;20.41;59.97
79577;BME280;69045;48.136;11.386;2023-09-30T03:33:25;96131.56;;;20.37;59.77
79577;BME280;69045;48.136;11.386;2023-09-30T03:35:53;96128.91;;;20.37;60.03
79577;BME280;69045;48.136;11.386;2023-09-30T03:38:21;96132.63;;;20.36;59.95
79577;BME280;69045;48.136;11.386;2023-09-30T03:40:51;96130.25;;;20.34;59.91
79577;BME280;69045;48.136;11.386;2023-09-30T03:43:21;96132.91;;;20.34;60.01
79577;BME280;69045;48.136;11.386;2023-09-30T03:45:49;96136.09;;;20.36;59.95
79577;BME280;69045;48.136;11.386;2023-09-30T03:48:17;96144.09;;;20.36;60.11
79577;BME280;69045;48.136;11.386;2023-09-30T03:50:46;96140.63;;;20.36;60.24
79577;BME280;69045;48.136;11.386;2023-09-30T03:53:15;96141.16;;;20.38;60.17
79577;BME280;69045;48.136;11.386;2023-09-30T03:55:43;96139.06;;;20.40;59.71
79577;BME280;69045;48.136;11.386;2023-09-30T03:58:13;96136.13;;;20.41;60.10
79577;BME280;69045;48.136;11.386;2023-09-30T04:00:42;96129.47;;;20.44;60.08
79577;BME280;69045;48.136;11.386;2023-09-30T04:03:10;96116.41;;;20.37;60.21
79577;BME280;69045;48.136;11.386;2023-09-30T04:05:38;96124.38;;;20.37;59.91
79577;BME280;69045;48.136;11.386;2023-09-30T04:08:07;96115.34;;;20.38;59.90
79577;BME280;69045;48.136;11.386;2023-09-30T04:10:35;96119.63;;;20.39;60.23
79577;BME280;69045;48.136;11.386;2023-09-30T04:13:03;96136.66;;;20.43;60.17
79577;BME280;69045;48.136;11.386;2023-09-30T04:15:32;96118.84;;;20.44;59.98
79577;BME280;69045;48.136;11.386;2023-09-30T04:18:04;96126.03;;;20.43;59.81
79577;BME280;69045;48.136;11.386;2023-09-30T04:20:32;96119.63;;;20.39;59.87
79577;BME280;69045;48.136;11.386;2023-09-30T04:23:00;96127.06;;;20.37;59.90
79577;BME280;69045;48.136;11.386;2023-09-30T04:25:29;96129.47;;;20.39;59.79
79577;BME280;69045;48.136;11.386;2023-09-30T04:27:57;96132.38;;;20.37;59.88
79577;BME280;69045;48.136;11.386;2023-09-30T04:30:25;96132.91;;;20.34;59.92
79577;BME280;69045;48.136;11.386;2023-09-30T04:32:55;96137.16;;;20.35;60.15
79577;BME280;69045;48.136;11.386;2023-09-30T04:35:25;96135.84;;;20.38;59.57
79577;BME280;69045;48.136;11.386;2023-09-30T04:37:53;96132.38;;;20.37;59.85
79577;BME280;69045;48.136;11.386;2023-09-30T04:40:21;96132.91;;;20.34;59.89
79577;BME280;69045;48.136;11.386;2023-09-30T04:42:49;96138.22;;;20.34;59.76
79577;BME280;69045;48.136;11.386;2023-09-30T04:45:17;96143.50;;;20.29;59.77
79577;BME280;69045;48.136;11.386;2023-09-30T04:47:47;96145.91;;;20.26;60.09
79577;BME280;69045;48.136;11.386;2023-09-30T04:50:18;96147.50;;;20.27;59.95
79577;BME280;69045;48.136;11.386;2023-09-30T04:52:50;96135.50;;;20.24;60.08
79577;BME280;69045;48.136;11.386;2023-09-30T04:55:18;96139.97;;;20.18;59.91
79577;BME280;69045;48.136;11.386;2023-09-30T04:57:47;96136.25;;;20.14;60.52
79577;BME280;69045;48.136;11.386;2023-09-30T05:00:18;96147.09;;;20.08;60.18
79577;BME280;69045;48.136;11.386;2023-09-30T05:02:51;96156.41;;;20.05;60.44
79577;BME280;69045;48.136;11.386;2023-09-30T05:05:22;96163.81;;;20.03;60.70
79577;BME280;69045;48.136;11.386;2023-09-30T05:07:50;96168.88;;;20.05;60.75
79577;BME280;69045;48.136;11.386;2023-09-30T05:10:18;96172.88;;;20.02;60.95
79577;BME280;69045;48.136;11.386;2023-09-30T05:12:46;96177.06;;;19.98;61.04
79577;BME280;69045;48.136;11.386;2023-09-30T05:15:15;96167.50;;;19.97;61.17
79577;BME280;69045;48.136;11.386;2023-09-30T05:17:44;96167.53;;;20.02;61.11
79577;BME280;69045;48.136;11.386;2023-09-30T05:20:14;96167.53;;;20.02;61.25
79577;BME280;69045;48.136;11.386;2023-09-30T05:22:46;96165.94;;;20.01;61.24
79577;BME280;69045;48.136;11.386;2023-09-30T05:25:16;96164.34;;;20.00;60.90
79577;BME280;69045;48.136;11.386;2023-09-30T05:27:46;96164.03;;;19.97;61.25
79577;BME280;69045;48.136;11.386;2023-09-30T05:30:15;96163.53;;;20.00;61.23
79577;BME280;69045;48.136;11.386;2023-09-30T05:32:44;96163.78;;;19.98;61.03
79577;BME280;69045;48.136;11.386;2023-09-30T05:35:13;96177.66;;;20.00;61.01
79577;BME280;69045;48.136;11.386;2023-09-30T05:37:45;96183.25;;;20.04;61.01
79577;BME280;69045;48.136;11.386;2023-09-30T05:40:13;96193.66;;;20.05;60.89
79577;BME280;69045;48.136;11.386;2023-09-30T05:42:50;96205.31;;;20.04;61.22
79577;BME280;69045;48.136;11.386;2023-09-30T05:45:18;96207.50;;;20.07;60.92
79577;BME280;69045;48.136;11.386;2023-09-30T05:47:46;96209.63;;;20.05;61.14
79577;BME280;69045;48.136;11.386;2023-09-30T05:50:19;96212.00;;;20.07;61.22
79577;BME280;69045;48.136;11.386;2023-09-30T05:52:54;96203.47;;;20.05;60.91
79577;BME280;69045;48.136;11.386;2023-09-30T05:55:23;96206.69;;;20.07;61.16
79577;BME280;69045;48.136;11.386;2023-09-30T05:57:53;96201.63;;;20.05;61.39
79577;BME280;69045;48.136;11.386;2023-09-30T06:00:23;96201.63;;;20.05;61.33
79577;BME280;69045;48.136;11.386;2023-09-30T06:02:57;96195.75;;;20.03;61.30
79577;BME280;69045;48.136;11.386;2023-09-30T06:05:26;96187.22;;;20.01;60.92
79577;BME280;69045;48.136;11.386;2023-09-30T06:08:00;96207.81;;;20.16;60.77
79577;BME280;69045;48.136;11.386;2023-09-30T06:10:29;96210.84;;;20.30;60.48
79577;BME280;69045;48.136;11.386;2023-09-30T06:12:57;96221.91;;;20.49;59.63
79577;BME280;69045;48.136;11.386;2023-09-30T06:15:26;96214.50;;;20.56;59.57
79577;BME280;69045;48.136;11.386;2023-09-30T06:17:55;96217.56;;;20.75;59.22
79577;BME280;69045;48.136;11.386;2023-09-30T06:20:24;96221.34;;;20.89;58.38
79577;BME280;69045;48.136;11.386;2023-09-30T06:22:55;96223.50;;;20.97;58.11
79577;BME280;69045;48.136;11.386;2023-09-30T06:25:24;96220.63;;;21.04;57.84
79577;BME280;69045;48.136;11.386;2023-09-30T06:27:54;96215.06;;;21.15;57.76
79577;BME280;69045;48.136;11.386;2023-09-30T06:30:23;96234.25;;;21.17;57.26
79577;BME280;69045;48.136;11.386;2023-09-30T06:32:57;96232.41;;;21.23;57.26
79577;BME280;69045;48.136;11.386;2023-09-30T06:35:28;96239.41;;;21.29;57.04
79577;BME280;69045;48.136;11.386;2023-09-30T06:37:57;96245.25;;;21.31;57.27
79577;BME280;69045;48.136;11.386;2023-09-30T06:40:27;96246.88;;;21.37;56.97
79577;BME280;69045;48.136;11.386;2023-09-30T06:42:55;96236.28;;;21.47;56.84
79577;BME280;69045;48.136;11.386;2023-09-30T06:45:24;96229.38;;;21.62;56.66
79577;BME280;69045;48.136;11.386;2023-09-30T06:47:53;96239.53;;;21.85;56.07
79577;BME280;69045;48.136;11.386;2023-09-30T06:50:21;96233.94;;;21.97;55.50
79577;BME280;69045;48.136;11.386;2023-09-30T06:52:50;96241.72;;;22.14;54.83
79577;BME280;69045;48.136;11.386;2023-09-30T06:55:18;96247.88;;;22.19;54.33
79577;BME280;69045;48.136;11.386;2023-09-30T06:57:48;96251.34;;;22.25;54.56
79577;BME280;69045;48.136;11.386;2023-09-30T07:00:18;96253.75;;;22.37;54.00
79577;BME280;69045;48.136;11.386;2023-09-30T07:02:46;96252.41;;;22.39;53.69
79577;BME280;69045;48.136;11.386;2023-09-30T07:05:15;96247.31;;;22.32;53.97
79577;BME280;69045;48.136;11.386;2023-09-30T07:07:43;96255.88;;;22.40;53.78
79577;BME280;69045;48.136;11.386;2023-09-30T07:10:11;96259.59;;;22.49;53.47
79577;BME280;69045;48.136;11.386;2023-09-30T07:12:40;96245.72;;;22.57;53.74
79577;BME280;69045;48.136;11.386;2023-09-30T07:15:10;96260.66;;;22.58;53.25
79577;BME280;69045;48.136;11.386;2023-09-30T07:17:38;96270.28;;;22.64;53.46
79577;BME280;69045;48.136;11.386;2023-09-30T07:20:11;96262.78;;;22.92;52.86
79577;BME280;69045;48.136;11.386;2023-09-30T07:22:39;96263.22;;;23.14;52.29
79577;BME280;69045;48.136;11.386;2023-09-30T07:25:21;96270.59;;;23.48;51.50
79577;BME280;69045;48.136;11.386;2023-09-30T07:27:49;96273.47;;;23.72;50.73
79577;BME280;69045;48.136;11.386;2023-09-30T07:30:20;96281.31;;;23.97;50.13
79577;BME280;69045;48.136;11.386;2023-09-30T07:32:48;96288.72;;;24.10;49.61
79577;BME280;69045;48.136;11.386;2023-09-30T07:35:17;96280.94;;;24.14;49.65
79577;BME280;69045;48.136;11.386;2023-09-30T07:37:45;96286.94;;;24.40;48.83
79577;BME280;69045;48.136;11.386;2023-09-30T07:40:13;96294.13;;;25.02;46.69
79577;BME280;69045;48.136;11.386;2023-09-30T07:42:41;96284.47;;;25.07;47.09
79577;BME280;69045;48.136;11.386;2023-09-30T07:45:09;96296.13;;;25.64;46.20
79577;BME280;69045;48.136;11.386;2023-09-30T07:47:39;96305.88;;;26.35;44.40
79577;BME280;69045;48.136;11.386;2023-09-30T07:50:08;96303.78;;;26.70;42.98
79577;BME280;69045;48.136;11.386;2023-09-30T07:52:38;96301.31;;;26.87;42.90
79577;BME280;69045;48.136;11.386;2023-09-30T07:55:08;96312.56;;;26.89;42.29
79577;BME280;69045;48.136;11.386;2023-09-30T07:57:41;96313.03;;;26.45;43.22
79577;BME280;69045;48.136;11.386;2023-09-30T08:00:11;96307.94;;;26.05;44.44
79577;BME280;69045;48.136;11.386;2023-09-30T08:02:44;96306.00;;;25.92;44.63
79577;BME280;69045;48.136;11.386;2023-09-30T08:05:12;96308.25;;;26.04;43.96
79577;BME280;69045;48.136;11.386;2023-09-30T08:07:41;96307.22;;;26.00;44.34
79577;BME280;69045;48.136;11.386;2023-09-30T08:10:09;96311.28;;;25.54;44.83
79577;BME280;69045;48.136;11.386;2023-09-30T08:12:40;96306.47;;;25.03;46.20
79577;BME280;69045;48.136;11.386;2023-09-30T08:15:10;96298.41;;;25.03;46.74
79577;BME280;69045;48.136;11.386;2023-09-30T08:17:39;96281.69;;;25.83;45.11
79577;BME280;69045;48.136;11.386;2023-09-30T08:20:10;96278.59;;;26.28;44.49
79577;BME280;69045;48.136;11.386;2023-09-30T08:22:39;96281.22;;;26.33;43.67
79577;BME280;69045;48.136;11.386;2023-09-30T08:25:08;96296.28;;;27.13;42.60
79577;BME280;69045;48.136;11.386;2023-09-30T08:27:37;96306.72;;;27.97;40.65
79577;BME280;69045;48.136;11.386;2023-09-30T08:30:07;96310.63;;;28.41;39.84
79577;BME280;69045;48.136;11.386;2023-09-30T08:32:35;96325.06;;;28.45;40.25
79577;BME280;69045;48.136;11.386;2023-09-30T08:35:04;96332.25;;;28.94;38.81
79577;BME280;69045;48.136;11.386;2023-09-30T08:37:35;96324.41;;;27.89;40.03
79577;BME280;69045;48.136;11.386;2023-09-30T08:40:04;96338.47;;;27.31;41.60
79577;BME280;69045;48.136;11.386;2023-09-30T08:42:32;96332.22;;;26.89;42.44
79577;BME280;69045;48.136;11.386;2023-09-30T08:45:02;96329.16;;;26.45;43.03
79577;BME280;69045;48.136;11.386;2023-09-30T08:47:33;96313.25;;;26.10;43.53
79577;BME280;69045;48.136;11.386;2023-09-30T08:50:03;96308.09;;;25.95;44.09
79577;BME280;69045;48.136;11.386;2023-09-30T08:52:38;96314.13;;;26.44;43.58
79577;BME280;69045;48.136;11.386;2023-09-30T08:55:08;96316.97;;;27.72;41.67
79577;BME280;69045;48.136;11.386;2023-09-30T08:57:38;96313.09;;;28.82;39.37
79577;BME280;69045;48.136;11.386;2023-09-30T09:00:11;96317.16;;;29.55;37.05
79577;BME280;69045;48.136;11.386;2023-09-30T09:02:41;96308.06;;;30.26;36.91
79577;BME280;69045;48.136;11.386;2023-09-30T09:05:10;96314.41;;;30.73;35.96
79577;BME280;69045;48.136;11.386;2023-09-30T09:07:40;96323.19;;;30.70;35.36
79577;BME280;69045;48.136;11.386;2023-09-30T09:10:11;96323.00;;;30.23;35.83
79577;BME280;69045;48.136;11.386;2023-09-30T09:12:42;96333.13;;;29.91;36.19
79577;BME280;69045;48.136;11.386;2023-09-30T09:15:22;96341.00;;;29.31;37.39
79577;BME280;69045;48.136;11.386;2023-09-30T09:17:51;96328.97;;;29.06;37.48
79577;BME280;69045;48.136;11.386;2023-09-30T09:20:21;96323.25;;;28.54;38.35
79577;BME280;69045;48.136;11.386;2023-09-30T09:22:53;96325.56;;;27.97;38.81
79577;BME280;69045;48.136;11.386;2023-09-30T09:25:23;96338.97;;;27.47;40.43
79577;BME280;69045;48.136;11.386;2023-09-30T09:27:52;96342.59;;;26.96;41.10
79577;BME280;69045;48.136;11.386;2023-09-30T09:30:23;96330.66;;;26.70;41.70
79577;BME280;69045;48.136;11.386;2023-09-30T09:32:53;96329.97;;;26.45;41.92
79577;BME280;69045;48.136;11.386;2023-09-30T09:35:22;96325.38;;;26.27;42.75
79577;BME280;69045;48.136;11.386;2023-09-30T09:37:58;96309.19;;;26.13;42.83
79577;BME280;69045;48.136;11.386;2023-09-30T09:40:28;96306.03;;;26.62;41.28
79577;BME280;69045;48.136;11.386;2023-09-30T09:42:57;96292.72;;;27.72;39.20
79577;BME280;69045;48.136;11.386;2023-09-30T09:45:26;96278.00;;;28.51;38.17
79577;BME280;69045;48.136;11.386;2023-09-30T09:47:55;96276.50;;;29.21;36.42
79577;BME280;69045;48.136;11.386;2023-09-30T09:50:23;96275.91;;;29.98;35.27
79577;BME280;69045;48.136;11.386;2023-09-30T09:52:52;96280.84;;;30.57;34.69
79577;BME280;69045;48.136;11.386;2023-09-30T09:55:23;96283.69;;;30.78;34.26
79577;BME280;69045;48.136;11.386;2023-09-30T09:57:52;96285.63;;;31.24;32.51
79577;BME280;69045;48.136;11.386;2023-09-30T10:00:22;96289.38;;;31.40;32.52
79577;BME280;69045;48.136;11.386;2023-09-30T10:02:52;96299.53;;;31.52;32.60
79577;BME280;69045;48.136;11.386;2023-09-30T10:05:21;96296.56;;;31.66;32.12
79577;BME280;69045;48.136;11.386;2023-09-30T10:07:52;96298.75;;;31.81;31.60
79577;BME280;69045;48.136;11.386;2023-09-30T10:10:24;96294.72;;;32.29;31.48
79577;BME280;69045;48.136;11.386;2023-09-30T10:12:52;96300.69;;;32.43;30.77
79577;BME280;69045;48.136;11.386;2023-09-30T10:15:37;96291.88;;;32.46;30.64
79577;BME280;69045;48.136;11.386;2023-09-30T10:18:09;96289.38;;;32.20;30.95
79577;BME280;69045;48.136;11.386;2023-09-30T10:20:42;96291.06;;;31.53;31.69
79577;BME280;69045;48.136;11.386;2023-09-30T10:23:20;96295.13;;;30.66;33.24
79577;BME280;69045;48.136;11.386;2023-09-30T10:25:52;96294.22;;;30.36;34.32
79577;BME280;69045;48.136;11.386;2023-09-30T10:28:37;96292.78;;;30.21;33.85
79577;BME280;69045;48.136;11.386;2023-09-30T10:31:11;96281.75;;;30.61;33.97
79577;BME280;69045;48.136;11.386;2023-09-30T10:34:20;96273.75;;;30.99;33.03
79577;BME280;69045;48.136;11.386;2023-09-30T10:36:48;96274.78;;;31.15;31.75
79577;BME280;69045;48.136;11.386;2023-09-30T10:39:52;96268.72;;;30.54;32.83
79577;BME280;69045;48.136;11.386;2023-09-30T10:42:44;96263.53;;;30.14;34.11
79577;BME280;69045;48.136;11.386;2023-09-30T10:45:44;96277.47;;;29.90;33.95
79577;BME280;69045;48.136;11.386;2023-09-30T10:48:36;96294.66;;;29.37;35.06
79577;BME280;69045;48.136;11.386;2023-09-30T10:51:14;96291.47;;;29.27;35.31
79577;BME280;69045;48.136;11.386;2023-09-30T10:53:45;96289.50;;;28.65;35.78
79577;BME280;69045;48.136;11.386;2023-09-30T10:56:14;96291.00;;;28.49;36.30
79577;BME280;69045;48.136;11.386;2023-09-30T10:58:45;96282.50;;;28.87;35.59
79577;BME280;69045;48.136;11.386;2023-09-30T11:01:17;96277.19;;;29.35;34.44
79577;BME280;69045;48.136;11.386;2023-09-30T11:03:47;96266.34;;;29.75;33.83
79577;BME280;69045;48.136;11.386;2023-09-30T11:06:20;96269.84;;;29.75;33.54
79577;BME280;69045;48.136;11.386;2023-09-30T11:08:53;96266.03;;;29.85;34.13
79577;BME280;69045;48.136;11.386;2023-09-30T11:11:35;96263.00;;;29.86;33.80
79577;BME280;69045;48.136;11.386;2023-09-30T11:14:16;96261.16;;;30.22;33.75
79577;BME280;69045;48.136;11.386;2023-09-30T11:16:45;96255.44;;;30.14;33.51
79577;BME280;69045;48.136;11.386;2023-09-30T11:19:13;96254.09;;;29.86;33.45
79577;BME280;69045;48.136;11.386;2023-09-30T11:21:42;96257.59;;;29.78;32.97
79577;BME280;69045;48.136;11.386;2023-09-30T11:24:13;96271.59;;;29.31;33.58
79577;BME280;69045;48.136;11.386;2023-09-30T11:26:41;96271.78;;;28.95;34.33
79577;BME280;69045;48.136;11.386;2023-09-30T11:29:12;96273.31;;;28.65;34.41
79577;BME280;69045;48.136;11.386;2023-09-30T11:31:44;96273.91;;;28.31;35.42
79577;BME280;69045;48.136;11.386;2023-09-30T11:34:15;96275.75;;;27.72;36.38
79577;BME280;69045;48.136;11.386;2023-09-30T11:36:48;96275.88;;;27.39;37.47
79577;BME280;69045;48.136;11.386;2023-09-30T11:39:24;96280.06;;;27.45;37.11
79577;BME280;69045;48.136;11.386;2023-09-30T11:41:52;96282.94;;;27.49;37.19
79577;BME280;69045;48.136;11.386;2023-09-30T11:44:24;96273.50;;;27.10;37.89
79577;BME280;69045;48.136;11.386;2023-09-30T11:46:54;96266.22;;;27.11;38.30
79577;BME280;69045;48.136;11.386;2023-09-30T11:49:25;96265.78;;;27.04;37.85
79577;BME280;69045;48.136;11.386;2023-09-30T11:51:53;96251.97;;;27.10;37.51
79577;BME280;69045;48.136;11.386;2023-09-30T11:54:21;96244.28;;;27.31;36.93
79577;BME280;69045;48.136;11.386;2023-09-30T11:56:49;96236.59;;;27.38;36.28
79577;BME280;69045;48.136;11.386;2023-09-30T11:59:18;96233.41;;;27.23;36.44
79577;BME280;69045;48.136;11.386;2023-09-30T12:01:50;96224.66;;;27.17;36.61
79577;BME280;69045;48.136;11.386;2023-09-30T12:04:37;96224.03;;;27.20;36.52
79577;BME280;69045;48.136;11.386;2023-09-30T12:07:06;96223.97;;;27.11;36.50
79577;BME280;69045;48.136;11.386;2023-09-30T12:09:35;96219.25;;;27.03;35.47
79577;BME280;69045;48.136;11.386;2023-09-30T12:12:05;96215.63;;;26.80;35.19
79577;BME280;69045;48.136;11.386;2023-09-30T12:14:36;96217.03;;;26.64;36.17
79577;BME280;69045;48.136;11.386;2023-09-30T12:17:06;96213.88;;;26.76;36.67
79577;BME280;69045;48.136;11.386;2023-09-30T12:22:59;96225.97;;;26.59;36.60
79577;BME280;69045;48.136;11.386;2023-09-30T12:25:27;96217.41;;;26.57;36.71
79577;BME280;69045;48.136;11.386;2023-09-30T12:27:56;96224.94;;;26.55;36.87
79577;BME280;69045;48.136;11.386;2023-09-30T12:30:24;96218.28;;;26.53;36.16
79577;BME280;69045;48.136;11.386;2023-09-30T12:32:55;96220.56;;;26.46;36.60
79577;BME280;69045;48.136;11.386;2023-09-30T12:35:23;96214.88;;;26.47;36.70
79577;BME280;69045;48.136;11.386;2023-09-30T12:37:51;96220.72;;;26.35;36.78
79577;BME280;69045;48.136;11.386;2023-09-30T12:40:23;96216.31;;;26.26;36.85
79577;BME280;69045;48.136;11.386;2023-09-30T12:42:51;96208.66;;;26.33;37.37
79577;BME280;69045;48.136;11.386;2023-09-30T12:45:19;96204.66;;;26.49;36.72
79577;BME280;69045;48.136;11.386;2023-09-30T12:47:49;96204.06;;;26.52;37.04
79577;BME280;69045;48.136;11.386;2023-09-30T12:50:23;96203.25;;;26.52;36.93
79577;BME280;69045;48.136;11.386;2023-09-30T12:52:50;96204.69;;;26.30;37.87
79577;BME280;69045;48.136;11.386;2023-09-30T12:55:18;96201.03;;;26.40;37.46
79577;BME280;69045;48.136;11.386;2023-09-30T12:57:46;96201.44;;;26.47;38.31
79577;BME280;69045;48.136;11.386;2023-09-30T13:00:15;96197.00;;;26.56;37.56
79577;BME280;69045;48.136;11.386;2023-09-30T13:02:45;96208.06;;;26.68;36.71
79577;BME280;69045;48.136;11.386;2023-09-30T13:05:14;96211.28;;;26.84;37.05
79577;BME280;69045;48.136;11.386;2023-09-30T13:07:45;96218.25;;;26.99;36.49
79577;BME280;69045;48.136;11.386;2023-09-30T13:10:13;96215.56;;;26.99;37.32